createdAt,value
2018-03-28T00:00:58.887Z,7.60
2018-03-28T00:03:26.494Z,7.70
2018-03-28T00:05:54.085Z,7.70
2018-03-28T00:08:21.765Z,7.70
2018-03-28T00:10:49.413Z,7.70
2018-03-28T00:13:18.691Z,7.70
2018-03-28T00:15:46.292Z,7.60
2018-03-28T00:18:13.970Z,7.60
2018-03-28T00:20:41.585Z,7.50
2018-03-28T00:23:10.238Z,7.60
2018-03-28T00:25:37.855Z,7.60
2018-03-28T00:28:06.269Z,7.60
2018-03-28T00:30:33.890Z,7.60
2018-03-28T00:33:02.359Z,7.50
2018-03-28T00:35:30.714Z,7.50
2018-03-28T00:37:58.313Z,7.50
2018-03-28T00:40:25.911Z,7.50
2018-03-28T00:42:53.528Z,7.40
2018-03-28T00:45:22.487Z,7.30
2018-03-28T00:47:50.125Z,7.30
2018-03-28T00:50:17.750Z,7.30
2018-03-28T00:52:46.095Z,7.30
2018-03-28T00:55:13.726Z,7.20
2018-03-28T00:57:41.309Z,7.30
2018-03-28T01:00:09.442Z,7.20
2018-03-28T01:02:37.064Z,7.10
2018-03-28T01:05:05.732Z,7.10
2018-03-28T01:07:33.314Z,7.00
2018-03-28T01:10:01.776Z,7.00
2018-03-28T01:12:30.934Z,7.00
2018-03-28T01:14:58.594Z,7.00
2018-03-28T01:17:26.190Z,7.00
2018-03-28T01:19:53.831Z,7.00
2018-03-28T01:22:21.715Z,7.00
2018-03-28T01:24:49.314Z,7.00
2018-03-28T01:27:18.507Z,6.90
2018-03-28T01:29:46.093Z,6.90
2018-03-28T01:32:13.750Z,7.00
2018-03-28T01:34:42.134Z,7.00
2018-03-28T01:37:09.757Z,6.90
2018-03-28T01:39:37.360Z,6.90
2018-03-28T01:42:05.060Z,6.80
2018-03-28T01:44:33.402Z,6.90
2018-03-28T01:47:01.020Z,6.90
2018-03-28T01:49:28.635Z,6.90
2018-03-28T01:51:57.202Z,6.90
2018-03-28T01:54:25.529Z,6.80
2018-03-28T01:56:53.175Z,6.80
2018-03-28T01:59:20.793Z,6.80
2018-03-28T02:01:49.936Z,6.80
2018-03-28T02:04:17.541Z,6.80
2018-03-28T02:06:46.643Z,6.90
2018-03-28T02:09:14.348Z,6.90
2018-03-28T02:11:41.987Z,6.90
2018-03-28T02:14:10.508Z,7.00
2018-03-28T02:16:38.746Z,7.00
2018-03-28T02:19:06.367Z,7.00
2018-03-28T02:21:33.967Z,7.00
2018-03-28T02:24:02.786Z,7.00
2018-03-28T02:26:30.361Z,7.10
2018-03-28T02:28:58.766Z,7.10
2018-03-28T02:31:26.416Z,7.10
2018-03-28T02:33:54.086Z,7.10
2018-03-28T02:36:21.695Z,7.20
2018-03-28T02:38:49.302Z,7.10
2018-03-28T02:41:16.930Z,7.10
2018-03-28T02:43:44.550Z,7.20
2018-03-28T02:46:12.892Z,7.20
2018-03-28T02:48:41.294Z,7.10
2018-03-28T02:51:08.904Z,7.10
2018-03-28T02:53:36.503Z,7.10
2018-03-28T02:56:04.138Z,7.10
2018-03-28T02:58:31.779Z,7.20
2018-03-28T03:00:59.387Z,7.10
2018-03-28T03:03:27.121Z,7.10
2018-03-28T03:05:54.712Z,7.20
2018-03-28T03:08:22.336Z,7.20
2018-03-28T03:10:50.662Z,7.20
2018-03-28T03:13:18.996Z,7.30
2018-03-28T03:15:46.574Z,7.30
2018-03-28T03:18:14.197Z,7.30
2018-03-28T03:20:43.524Z,7.30
2018-03-28T03:23:12.343Z,7.30
2018-03-28T03:25:40.706Z,7.30
2018-03-28T03:28:08.281Z,7.30
2018-03-28T03:30:35.895Z,7.30
2018-03-28T03:33:03.571Z,7.30
2018-03-28T03:35:31.228Z,7.30
2018-03-28T03:37:58.845Z,7.30
2018-03-28T03:40:28.189Z,7.40
2018-03-28T03:42:55.830Z,7.40
2018-03-28T03:45:23.423Z,7.40
2018-03-28T03:47:51.042Z,7.40
2018-03-28T03:50:18.641Z,7.50
2018-03-28T03:52:46.285Z,7.60
2018-03-28T03:55:13.954Z,7.60
2018-03-28T03:57:41.547Z,7.60
2018-03-28T04:00:09.193Z,7.70
2018-03-28T04:02:36.815Z,7.70
2018-03-28T04:05:04.475Z,7.70
2018-03-28T04:07:32.065Z,7.60
2018-03-28T04:10:00.679Z,7.60
2018-03-28T04:12:28.298Z,7.70
2018-03-28T04:14:55.929Z,7.60
2018-03-28T04:17:23.599Z,7.50
2018-03-28T04:19:51.972Z,7.50
2018-03-28T04:22:20.355Z,7.50
2018-03-28T04:24:48.012Z,7.50
2018-03-28T04:27:15.613Z,7.60
2018-03-28T04:29:43.983Z,7.60
2018-03-28T04:32:12.372Z,7.60
2018-03-28T04:34:39.993Z,7.60
2018-03-28T04:37:07.644Z,7.60
2018-03-28T04:39:36.203Z,7.60
2018-03-28T04:42:03.805Z,7.60
2018-03-28T04:44:31.396Z,7.50
2018-03-28T04:46:59.122Z,7.50
2018-03-28T04:49:26.741Z,7.60
2018-03-28T04:51:54.406Z,7.50
2018-03-28T04:54:22.137Z,7.40
2018-03-28T04:56:49.789Z,7.50
2018-03-28T04:59:17.478Z,7.60
2018-03-28T05:01:45.111Z,7.60
2018-03-28T05:04:12.763Z,7.70
2018-03-28T05:06:40.690Z,7.60
2018-03-28T05:09:08.310Z,7.60
2018-03-28T05:11:35.976Z,7.70
2018-03-28T05:14:03.573Z,7.70
2018-03-28T05:16:31.323Z,7.70
2018-03-28T05:18:58.920Z,7.80
2018-03-28T05:21:27.028Z,7.80
2018-03-28T05:23:55.340Z,7.80
2018-03-28T05:26:22.929Z,7.80
2018-03-28T05:28:50.536Z,7.80
2018-03-28T05:31:18.202Z,7.80
2018-03-28T05:33:45.814Z,7.80
2018-03-28T05:36:13.449Z,7.80
2018-03-28T05:38:41.181Z,7.70
2018-03-28T05:41:08.850Z,7.70
2018-03-28T05:43:36.471Z,7.70
2018-03-28T05:46:04.119Z,7.80
2018-03-28T05:48:31.736Z,7.80
2018-03-28T05:50:59.370Z,7.70
2018-03-28T05:53:26.998Z,7.80
2018-03-28T05:55:54.637Z,7.70
2018-03-28T05:58:22.297Z,7.60
2018-03-28T06:00:49.905Z,7.70
2018-03-28T06:03:18.252Z,7.70
2018-03-28T06:05:45.889Z,7.70
2018-03-28T06:08:13.544Z,7.80
2018-03-28T06:10:41.270Z,7.70
2018-03-28T06:13:08.876Z,7.80
2018-03-28T06:15:36.531Z,7.80
2018-03-28T06:18:04.174Z,7.80
2018-03-28T06:20:32.500Z,7.90
2018-03-28T06:23:00.106Z,8.00
2018-03-28T06:25:28.031Z,8.00
2018-03-28T06:27:55.872Z,8.10
2018-03-28T06:30:23.551Z,8.10
2018-03-28T06:32:51.188Z,8.10
2018-03-28T06:35:18.795Z,8.10
2018-03-28T06:37:47.162Z,8.30
2018-03-28T06:40:14.790Z,8.30
2018-03-28T06:42:42.400Z,8.20
2018-03-28T06:45:10.151Z,8.20
2018-03-28T06:47:37.796Z,8.10
2018-03-28T06:50:05.453Z,8.20
2018-03-28T06:52:33.225Z,8.20
2018-03-28T06:55:00.887Z,8.20
2018-03-28T06:57:28.638Z,8.20
2018-03-28T06:59:56.279Z,8.20
2018-03-28T07:02:23.893Z,8.20
2018-03-28T07:04:51.471Z,8.20
2018-03-28T07:07:19.063Z,8.30
2018-03-28T07:09:46.666Z,8.30
2018-03-28T07:12:14.302Z,8.30
2018-03-28T07:14:42.833Z,8.20
2018-03-28T07:17:10.444Z,8.20
2018-03-28T07:19:38.055Z,8.30
2018-03-28T07:22:05.665Z,8.30
2018-03-28T07:24:33.250Z,8.30
2018-03-28T07:27:00.878Z,8.30
2018-03-28T07:29:28.508Z,8.30
2018-03-28T07:31:56.984Z,8.30
2018-03-28T07:34:24.671Z,8.30
2018-03-28T07:36:52.354Z,8.30
2018-03-28T07:39:19.953Z,8.40
2018-03-28T07:41:47.556Z,8.40
2018-03-28T07:44:15.945Z,8.50
2018-03-28T07:46:44.947Z,8.50
2018-03-28T07:49:12.607Z,8.60
2018-03-28T07:51:40.257Z,8.80
2018-03-28T07:54:08.954Z,8.80
2018-03-28T07:56:36.566Z,8.80
2018-03-28T07:59:04.156Z,8.90
2018-03-28T08:01:32.551Z,8.70
2018-03-28T08:04:00.211Z,8.70
2018-03-28T08:06:27.859Z,8.60
2018-03-28T08:08:56.240Z,8.60
2018-03-28T08:11:24.615Z,8.70
2018-03-28T08:13:54.001Z,8.70
2018-03-28T08:16:22.570Z,8.70
2018-03-28T08:18:50.807Z,8.90
2018-03-28T08:21:19.215Z,8.90
2018-03-28T08:23:46.851Z,8.90
2018-03-28T08:26:14.515Z,9.10
2018-03-28T08:28:42.188Z,9.40
2018-03-28T08:31:09.814Z,9.60
2018-03-28T08:33:38.210Z,10.10
2018-03-28T08:36:05.835Z,10.00
2018-03-28T08:38:33.925Z,10.10
2018-03-28T08:41:01.615Z,10.10
2018-03-28T08:43:29.258Z,10.30
2018-03-28T08:45:57.726Z,10.30
2018-03-28T08:48:26.151Z,10.40
2018-03-28T08:50:53.768Z,10.30
2018-03-28T08:53:21.417Z,10.40
2018-03-28T08:55:49.012Z,10.50
2018-03-28T08:58:16.665Z,10.70
2018-03-28T09:00:44.584Z,10.60
2018-03-28T09:03:12.210Z,10.70
2018-03-28T09:05:39.881Z,10.80
2018-03-28T09:08:08.299Z,11.00
2018-03-28T09:10:35.949Z,11.00
2018-03-28T09:13:04.158Z,11.00
2018-03-28T09:15:32.591Z,10.90
2018-03-28T09:18:00.196Z,10.90
2018-03-28T09:20:29.769Z,11.00
2018-03-28T09:22:57.393Z,11.00
2018-03-28T09:25:24.995Z,10.90
2018-03-28T09:27:52.674Z,10.90
2018-03-28T09:30:20.298Z,11.00
2018-03-28T09:32:47.966Z,11.10
2018-03-28T09:35:16.476Z,11.30
2018-03-28T09:37:44.112Z,11.30
2018-03-28T09:40:11.757Z,11.20
2018-03-28T09:42:39.384Z,11.10
2018-03-28T09:45:07.026Z,11.30
2018-03-28T09:47:34.653Z,11.30
2018-03-28T09:50:02.343Z,11.20
2018-03-28T09:52:30.387Z,11.30
2018-03-28T09:54:58.050Z,11.30
2018-03-28T09:57:25.640Z,11.30
2018-03-28T09:59:54.123Z,11.10
2018-03-28T10:02:27.338Z,11.10
2018-03-28T10:04:59.594Z,11.30
2018-03-28T10:07:27.613Z,11.30
2018-03-28T10:09:55.241Z,11.30
2018-03-28T10:12:23.654Z,11.70
2018-03-28T10:14:51.288Z,11.70
2018-03-28T10:17:19.655Z,11.50
2018-03-28T10:19:48.085Z,11.60
2018-03-28T10:22:15.727Z,11.60
2018-03-28T10:24:43.516Z,11.80
2018-03-28T10:27:11.169Z,11.70
2018-03-28T10:29:38.814Z,11.60
2018-03-28T10:32:06.462Z,11.60
2018-03-28T10:34:35.568Z,11.70
2018-03-28T10:37:03.246Z,11.70
2018-03-28T10:39:31.120Z,11.80
2018-03-28T10:41:58.699Z,11.80
2018-03-28T10:44:26.539Z,11.80
2018-03-28T10:46:54.165Z,11.70
2018-03-28T10:49:23.782Z,11.50
2018-03-28T10:51:51.408Z,11.50
2018-03-28T10:54:19.141Z,11.50
2018-03-28T10:56:47.841Z,11.60
2018-03-28T10:59:15.524Z,11.70
2018-03-28T11:01:43.163Z,11.70
2018-03-28T11:04:10.929Z,11.60
2018-03-28T11:06:38.563Z,11.60
2018-03-28T11:09:06.252Z,11.60
2018-03-28T11:11:33.886Z,11.60
2018-03-28T11:14:01.536Z,11.80
2018-03-28T11:16:29.960Z,11.70
2018-03-28T11:18:57.571Z,11.70
2018-03-28T11:21:25.985Z,11.60
2018-03-28T11:23:53.652Z,11.60
2018-03-28T11:26:22.114Z,11.50
2018-03-28T11:28:49.759Z,11.40
2018-03-28T11:31:18.202Z,11.40
2018-03-28T11:33:45.826Z,11.40
2018-03-28T11:36:13.504Z,11.40
2018-03-28T11:38:41.678Z,11.30
2018-03-28T11:41:09.295Z,11.40
2018-03-28T11:43:36.923Z,11.40
2018-03-28T11:46:04.590Z,11.40
2018-03-28T11:48:32.279Z,11.20
2018-03-28T11:51:00.674Z,11.20
2018-03-28T11:53:29.022Z,11.30
2018-03-28T11:55:56.752Z,11.30
2018-03-28T11:58:24.380Z,11.30
2018-03-28T12:00:52.065Z,11.30
2018-03-28T12:03:19.980Z,11.30
2018-03-28T12:05:47.612Z,11.30
2018-03-28T12:08:15.263Z,11.40
2018-03-28T12:10:42.894Z,11.30
2018-03-28T12:13:11.403Z,11.40
2018-03-28T12:15:39.015Z,11.30
2018-03-28T12:18:06.587Z,11.40
2018-03-28T12:20:35.316Z,11.50
2018-03-28T12:23:02.875Z,11.50
2018-03-28T12:25:30.582Z,11.40
2018-03-28T12:27:58.226Z,11.40
2018-03-28T12:30:25.924Z,11.30
2018-03-28T12:32:54.283Z,11.30
2018-03-28T12:35:21.919Z,11.30
2018-03-28T12:37:49.592Z,11.40
2018-03-28T12:40:17.244Z,11.50
2018-03-28T12:42:44.910Z,11.60
2018-03-28T12:45:12.601Z,11.40
2018-03-28T12:47:40.252Z,11.30
2018-03-28T12:50:07.858Z,11.20
2018-03-28T12:52:35.497Z,11.20
2018-03-28T12:55:03.934Z,11.20
2018-03-28T12:57:31.641Z,11.20
2018-03-28T12:59:59.298Z,11.10
2018-03-28T13:02:26.921Z,11.00
2018-03-28T13:04:54.757Z,11.00
2018-03-28T13:07:22.387Z,10.80
2018-03-28T13:09:50.820Z,10.80
2018-03-28T13:12:18.438Z,10.80
2018-03-28T13:14:46.074Z,10.80
2018-03-28T13:17:13.724Z,10.70
2018-03-28T13:19:41.308Z,10.60
2018-03-28T13:22:09.028Z,10.50
2018-03-28T13:24:36.661Z,10.50
2018-03-28T13:27:05.144Z,10.30
2018-03-28T13:29:32.808Z,10.30
2018-03-28T13:32:00.418Z,10.20
2018-03-28T13:34:28.842Z,10.20
2018-03-28T13:36:57.223Z,9.90
2018-03-28T13:39:24.854Z,9.90
2018-03-28T13:41:52.567Z,10.00
2018-03-28T13:44:21.002Z,9.90
2018-03-28T13:46:48.625Z,9.90
2018-03-28T13:49:16.209Z,9.80
2018-03-28T13:51:43.908Z,9.80
2018-03-28T13:54:12.278Z,9.60
2018-03-28T13:56:39.938Z,9.60
2018-03-28T13:59:08.292Z,9.50
2018-03-28T14:01:36.112Z,9.50
2018-03-28T14:04:03.844Z,9.60
2018-03-28T14:06:32.242Z,9.60
2018-03-28T14:08:59.905Z,9.60
2018-03-28T14:11:27.677Z,9.60
2018-03-28T14:13:56.056Z,9.70
2018-03-28T14:16:23.735Z,9.70
2018-03-28T14:18:51.392Z,9.80
2018-03-28T14:21:19.070Z,9.80
2018-03-28T14:23:46.756Z,9.90
2018-03-28T14:26:14.402Z,9.90
2018-03-28T14:28:42.121Z,9.90
2018-03-28T14:31:09.708Z,9.90
2018-03-28T14:33:37.314Z,9.90
2018-03-28T14:36:04.951Z,9.70
2018-03-28T14:38:32.575Z,9.50
2018-03-28T14:41:01.152Z,9.60
2018-03-28T14:43:28.764Z,9.50
2018-03-28T14:45:56.354Z,9.50
2018-03-28T14:48:23.951Z,9.50
2018-03-28T14:50:51.552Z,9.50
2018-03-28T14:53:19.178Z,9.50
2018-03-28T14:55:46.922Z,9.50
2018-03-28T14:58:14.529Z,9.50
2018-03-28T15:00:42.202Z,9.50
2018-03-28T15:03:10.404Z,9.50
2018-03-28T15:05:38.014Z,9.50
2018-03-28T15:08:05.664Z,9.60
2018-03-28T15:10:33.396Z,9.70
2018-03-28T15:13:00.992Z,9.60
2018-03-28T15:15:28.699Z,9.60
2018-03-28T15:17:56.369Z,9.70
2018-03-28T15:20:25.146Z,9.70
2018-03-28T15:22:52.761Z,9.70
2018-03-28T15:25:20.375Z,9.70
2018-03-28T15:27:48.021Z,9.70
2018-03-28T15:30:16.549Z,9.70
2018-03-28T15:32:44.937Z,9.60
2018-03-28T15:35:12.578Z,9.60
2018-03-28T15:37:41.737Z,9.50
2018-03-28T15:40:10.227Z,9.50
2018-03-28T15:42:38.150Z,9.40
2018-03-28T15:45:05.772Z,9.40
2018-03-28T15:47:34.204Z,9.30
2018-03-28T15:50:01.805Z,9.30
2018-03-28T15:52:29.411Z,9.10
2018-03-28T15:54:57.060Z,9.10
2018-03-28T15:57:25.003Z,9.10
2018-03-28T15:59:52.636Z,9.10
2018-03-28T16:02:20.286Z,9.00
2018-03-28T16:04:47.925Z,9.10
2018-03-28T16:07:15.581Z,9.10
2018-03-28T16:09:43.234Z,9.10
2018-03-28T16:12:10.927Z,9.00
2018-03-28T16:14:38.560Z,9.10
2018-03-28T16:17:06.249Z,9.10
2018-03-28T16:19:33.910Z,9.00
2018-03-28T16:22:01.641Z,9.00
2018-03-28T16:24:29.447Z,9.00
2018-03-28T16:26:57.071Z,9.10
2018-03-28T16:29:25.540Z,9.10
2018-03-28T16:31:54.034Z,9.10
2018-03-28T16:34:21.860Z,9.10
2018-03-28T16:36:49.648Z,9.20
2018-03-28T16:39:17.309Z,9.00
2018-03-28T16:41:45.716Z,9.00
2018-03-28T16:44:13.471Z,9.00
2018-03-28T16:46:41.260Z,9.10
2018-03-28T16:49:09.037Z,9.10
2018-03-28T16:51:36.675Z,9.10
2018-03-28T16:54:05.255Z,9.10
2018-03-28T16:56:33.716Z,9.30
2018-03-28T16:59:02.177Z,9.30
2018-03-28T17:01:29.839Z,9.20
2018-03-28T17:03:57.478Z,9.20
2018-03-28T17:06:25.145Z,9.20
2018-03-28T17:08:52.742Z,9.20
2018-03-28T17:11:20.424Z,9.00
2018-03-28T17:13:48.837Z,8.90
2018-03-28T17:16:17.305Z,9.00
2018-03-28T17:18:44.907Z,8.90
2018-03-28T17:21:12.561Z,9.00
2018-03-28T17:23:40.323Z,8.70
2018-03-28T17:26:07.944Z,8.70
2018-03-28T17:28:36.480Z,8.60
2018-03-28T17:31:04.100Z,8.60
2018-03-28T17:33:31.725Z,8.50
2018-03-28T17:36:00.362Z,8.50
2018-03-28T17:38:27.955Z,8.50
2018-03-28T17:40:55.674Z,8.50
2018-03-28T17:43:23.307Z,8.50
2018-03-28T17:45:50.960Z,8.50
2018-03-28T17:48:18.633Z,8.50
2018-03-28T17:50:46.255Z,8.50
2018-03-28T17:53:13.832Z,8.40
2018-03-28T17:55:41.509Z,8.50
2018-03-28T17:58:09.131Z,8.50
2018-03-28T18:00:36.759Z,8.50
2018-03-28T18:03:04.410Z,8.40
2018-03-28T18:05:32.027Z,8.40
2018-03-28T18:07:59.642Z,8.40
2018-03-28T18:10:27.357Z,8.50
2018-03-28T18:12:55.024Z,8.40
2018-03-28T18:15:23.373Z,8.50
2018-03-28T18:17:50.993Z,8.40
2018-03-28T18:20:18.589Z,8.50
2018-03-28T18:22:46.247Z,8.40
2018-03-28T18:25:13.925Z,8.40
2018-03-28T18:27:41.543Z,8.40
2018-03-28T18:30:09.350Z,8.40
2018-03-28T18:32:37.755Z,8.40
2018-03-28T18:35:05.365Z,8.40
2018-03-28T18:37:33.167Z,8.30
2018-03-28T18:40:00.808Z,8.40
2018-03-28T18:42:28.418Z,8.20
2018-03-28T18:44:56.090Z,8.30
2018-03-28T18:47:24.797Z,8.30
2018-03-28T18:49:52.489Z,8.30
2018-03-28T18:52:20.093Z,8.30
2018-03-28T18:54:47.831Z,8.20
2018-03-28T18:57:15.516Z,8.20
2018-03-28T18:59:43.900Z,8.10
2018-03-28T19:02:12.343Z,8.10
2018-03-28T19:04:40.057Z,8.10
2018-03-28T19:07:07.729Z,8.10
2018-03-28T19:09:35.347Z,8.10
2018-03-28T19:12:02.985Z,8.00
2018-03-28T19:14:30.563Z,8.00
2018-03-28T19:16:58.179Z,8.00
2018-03-28T19:19:25.790Z,7.90
2018-03-28T19:21:53.475Z,7.90
2018-03-28T19:24:21.136Z,7.70
2018-03-28T19:26:49.615Z,7.80
2018-03-28T19:29:17.280Z,7.80
2018-03-28T19:31:45.746Z,7.90
2018-03-28T19:34:13.354Z,7.90
2018-03-28T19:36:40.982Z,7.80
2018-03-28T19:39:08.629Z,7.80
2018-03-28T19:41:36.220Z,7.80
2018-03-28T19:44:03.834Z,7.80
2018-03-28T19:46:31.586Z,7.80
2018-03-28T19:48:59.169Z,7.70
2018-03-28T19:51:26.832Z,7.50
2018-03-28T19:53:54.415Z,7.40
2018-03-28T19:56:22.835Z,7.20
2018-03-28T19:58:50.707Z,7.20
2018-03-28T20:01:18.331Z,7.10
2018-03-28T20:03:47.062Z,7.00
2018-03-28T20:06:14.726Z,7.00
2018-03-28T20:08:43.291Z,7.00
2018-03-28T20:11:10.935Z,6.90
2018-03-28T20:13:38.640Z,6.90
2018-03-28T20:16:06.302Z,6.80
2018-03-28T20:18:34.571Z,6.70
2018-03-28T20:21:02.239Z,6.70
2018-03-28T20:23:29.992Z,6.70
2018-03-28T20:25:58.526Z,6.70
2018-03-28T20:28:26.223Z,6.60
2018-03-28T20:30:54.294Z,6.40
2018-03-28T20:33:22.009Z,6.40
2018-03-28T20:35:49.638Z,6.30
2018-03-28T20:38:17.349Z,6.20
2018-03-28T20:40:44.996Z,6.20
2018-03-28T20:43:12.638Z,6.10
2018-03-28T20:45:40.361Z,6.10
2018-03-28T20:48:07.968Z,6.10
2018-03-28T20:50:35.587Z,6.00
2018-03-28T20:53:03.465Z,6.00
2018-03-28T20:55:31.095Z,5.90
2018-03-28T20:57:58.726Z,6.00
2018-03-28T21:00:26.357Z,6.00
2018-03-28T21:02:53.971Z,6.10
2018-03-28T21:05:21.572Z,6.00
2018-03-28T21:07:49.235Z,5.90
2018-03-28T21:10:16.898Z,5.80
2018-03-28T21:12:44.520Z,5.80
2018-03-28T21:15:12.932Z,5.60
2018-03-28T21:17:40.584Z,5.50
2018-03-28T21:20:08.194Z,5.50
2018-03-28T21:22:35.815Z,5.50
2018-03-28T21:25:04.285Z,5.30
2018-03-28T21:27:31.948Z,5.30
2018-03-28T21:29:59.627Z,5.40
2018-03-28T21:32:27.274Z,5.30
2018-03-28T21:34:55.051Z,5.30
2018-03-28T21:37:22.704Z,5.30
2018-03-28T21:39:50.322Z,5.30
2018-03-28T21:42:17.914Z,5.10
2018-03-28T21:44:45.516Z,5.10
2018-03-28T21:47:13.107Z,5.10
2018-03-28T21:49:40.751Z,5.10
2018-03-28T21:52:08.484Z,5.00
2018-03-28T21:54:36.168Z,5.00
2018-03-28T21:57:03.847Z,5.00
2018-03-28T21:59:31.514Z,5.00
2018-03-28T22:01:59.114Z,4.90
2018-03-28T22:04:26.788Z,4.90
2018-03-28T22:06:54.413Z,4.90
2018-03-28T22:09:22.807Z,4.90
2018-03-28T22:11:50.468Z,4.90
2018-03-28T22:14:19.710Z,4.90
2018-03-28T22:16:47.454Z,4.90
2018-03-28T22:19:15.092Z,4.80
2018-03-28T22:21:42.720Z,4.80
2018-03-28T22:24:10.327Z,4.80
2018-03-28T22:26:38.687Z,4.80
2018-03-28T22:29:06.322Z,4.70
2018-03-28T22:31:33.933Z,4.70
2018-03-28T22:34:01.531Z,4.70
2018-03-28T22:36:29.146Z,4.80
2018-03-28T22:38:57.623Z,4.80
2018-03-28T22:41:25.273Z,4.70
2018-03-28T22:43:52.884Z,4.70
2018-03-28T22:46:20.509Z,4.70
2018-03-28T22:48:48.107Z,4.60
2018-03-28T22:51:15.762Z,4.50
2018-03-28T22:53:44.208Z,4.50
2018-03-28T22:56:11.886Z,4.50
2018-03-28T22:58:39.472Z,4.50
2018-03-28T23:01:07.143Z,4.50
2018-03-28T23:03:34.749Z,4.40
2018-03-28T23:06:03.167Z,4.50
2018-03-28T23:08:30.811Z,4.40
2018-03-28T23:10:58.458Z,4.50
2018-03-28T23:13:26.055Z,4.50
2018-03-28T23:15:53.670Z,4.50
2018-03-28T23:18:21.335Z,4.50
2018-03-28T23:20:48.979Z,4.50
2018-03-28T23:23:16.616Z,4.60
2018-03-28T23:25:44.975Z,4.60
2018-03-28T23:28:12.603Z,4.60
2018-03-28T23:30:40.370Z,4.50
2018-03-28T23:33:08.005Z,4.50
2018-03-28T23:35:35.686Z,4.40
2018-03-28T23:38:04.064Z,4.20
2018-03-28T23:40:32.886Z,4.20
2018-03-28T23:43:00.535Z,4.20
2018-03-28T23:45:28.258Z,4.30
2018-03-28T23:47:55.876Z,4.40
2018-03-28T23:50:23.442Z,4.40
2018-03-28T23:52:51.174Z,4.40
2018-03-28T23:55:19.525Z,4.20
2018-03-28T23:57:47.163Z,4.20
